Hiddenite, NC

8:59 PM EST on December 28, 2014 (GMT -0500)
Lincolnton-Lincoln County Regional | Change Station
CLOSE
Current Station
Airport
Location: Lincolnton,
Elevation: 876 ft
Nearby Weather Stations

Elev 876 ft 35.48 °N, 81.16 °W | Updated 24 minutes ago

Overcast
Overcast
50 °F
Feels Like 50 °F
N
0
Wind Variable Wind from North

Today
High -- | Low -- °F
--% Chance of Precip.
Yesterday
High -- | Low -- °F
Precip. -- in
7:33 AM 5:18 PM
First Quarter, 53% visible
Pressure 30.06 in
Visibility 1.5 miles
Clouds Mostly Cloudy 9500 ft
Dew Point 50 °F
Humidity 98%
Rainfall 0.00 in
Snow Depth Not available.
UV 0 out of 12
Pollen .30 out of 12
Air Quality Not available.
Flu Activity Not available.
METAR KIPJ 290135Z AUTO 00000KT 1 1/2SM BR BKN095 10/10 A3006 RMK AO2 T01000097

More Conditions Fewer Conditions

Pressure 30.06 in
Visibility 1.5 miles
Clouds Mostly Cloudy 9500 ft
Dew Point 50 °F
Humidity 98%
Rainfall 0.00 in
Snow Depth Not available.
UV 0 out of 12
Pollen .30 out of 12
Air Quality Not available.
Flu Activity Not available.
METAR KIPJ 290135Z AUTO 00000KT 1 1/2SM BR BKN095 10/10 A3006 RMK AO2 T01000097

More Conditions Fewer Conditions

10-Day Weather Forecast

Almanac

Astronomy

Dec. 28, 2014 Rise Set
Actual Time
Civil Twilight
Nautical Twilight
Astronomical Twilight
Moon
Length of Visible Light
Length of Day
Tomorrow will be .
, % of the Moon is Illuminated

Today's Extremes

State Highs State Lows

Community

WunderPhotos

Upload Photos

1,781,489 photos uploaded!

WunderBlogs® & News

Nearby

Air Quality

  Air Quality AQ Index Pollutant
Not available.

Snow Depth

Station Depth Elevation

Earthquake Activity

City Distance Mag. Time & Date
Minimum magnitude displayed is 2.5.

Coastal Water Temperatures

Place Temperature

Nearby Weather Stations